Time;durP1;ratioP1;P1;durP2;ratioP2;P2;SDS_P1;SDS_P2;PMS_P1;PMS_P2;Temp;Humidity;BMP_temperature;BMP_pressure;BME280_temperature;BME280_humidity;BME280_pressure;Samples;Min_cycle;Max_cycle;Signal;HPM_P1;HPM_P2
2023/05/08 00:01:54;;;;;;;19.10;16.20;;;;;;;;;;5043157;28;20833;-69
2023/05/08 00:04:20;;;;;;;18.95;15.52;;;12.10;1.00;;;;;;5039435;28;20418;-69
2023/05/08 00:06:46;;;;;;;20.08;16.25;;;12.00;1.00;;;;;;5044973;28;20045;-69
2023/05/08 00:09:12;;;;;;;19.08;15.77;;;12.10;1.00;;;;;;5036479;28;20451;-69
2023/05/08 00:11:38;;;;;;;18.38;15.40;;;12.00;1.00;;;;;;5042768;28;20064;-69
2023/05/08 00:14:03;;;;;;;19.20;15.45;;;12.40;1.00;;;;;;5054332;28;20041;-69
2023/05/08 00:16:30;;;;;;;19.17;16.38;;;11.80;1.00;;;;;;5022582;28;20038;-69
2023/05/08 00:18:56;;;;;;;18.58;16.02;;;;;;;;;;5038410;28;20108;-69
2023/05/08 00:21:22;;;;;;;18.77;14.88;;;12.00;16.40;;;;;;5039334;28;20443;-69
2023/05/08 00:23:47;;;;;;;20.25;15.23;;;11.60;44.20;;;;;;5046408;28;20082;-69
2023/05/08 00:26:13;;;;;;;18.63;14.35;;;12.20;57.20;;;;;;5036724;28;20041;-69
2023/05/08 00:28:38;;;;;;;19.25;15.85;;;11.60;64.70;;;;;;5036951;28;20539;-69
2023/05/08 00:31:05;;;;;;;18.38;14.48;;;;;;;;;;5041352;28;20025;-69
2023/05/08 00:33:30;;;;;;;18.92;15.07;;;11.80;80.30;;;;;;5043090;28;20076;-69
2023/05/08 00:36:02;;;;;;;18.63;15.43;;;;;;;;;;5040807;28;20069;-69
2023/05/08 00:38:32;;;;;;;19.35;15.48;;;11.20;91.70;;;;;;5034323;28;20034;-69
2023/05/08 00:40:59;;;;;;;18.77;15.50;;;11.50;93.40;;;;;;5042929;28;20095;-69
2023/05/08 00:43:27;;;;;;;21.73;15.82;;;11.60;97.30;;;;;;5035924;28;20039;-69
2023/05/08 00:45:54;;;;;;;19.80;15.50;;;11.50;99.90;;;;;;5038022;28;20047;-69
2023/05/08 00:48:21;;;;;;;18.67;14.65;;;11.20;99.90;;;;;;5038982;28;20498;-68
2023/05/08 00:50:48;;;;;;;20.58;16.00;;;11.80;99.90;;;;;;5050521;28;20037;-69
2023/05/08 00:53:14;;;;;;;20.48;16.05;;;11.50;99.90;;;;;;5034780;28;20033;-69
2023/05/08 00:55:40;;;;;;;20.58;16.73;;;11.70;99.90;;;;;;5040970;28;20033;-68
2023/05/08 00:58:06;;;;;;;19.88;15.30;;;11.40;99.90;;;;;;5038758;28;20035;-69
2023/05/08 01:00:32;;;;;;;17.77;14.85;;;11.20;99.90;;;;;;5039562;28;20144;-69
2023/05/08 01:02:59;;;;;;;19.00;15.25;;;11.10;99.90;;;;;;5040815;28;20197;-69
2023/05/08 01:05:27;;;;;;;22.77;15.55;;;11.10;99.90;;;;;;5051708;28;20044;-69
2023/05/08 01:07:52;;;;;;;20.30;16.17;;;10.70;99.90;;;;;;5043802;28;21286;-68
2023/05/08 01:10:18;;;;;;;21.58;15.80;;;11.10;99.90;;;;;;5034774;28;20037;-69
2023/05/08 01:12:47;;;;;;;20.02;16.30;;;11.10;99.90;;;;;;5056400;28;20033;-69
2023/05/08 01:15:35;;;;;;;18.77;15.18;;;11.50;99.90;;;;;;5038803;28;20422;-69
2023/05/08 01:18:06;;;;;;;19.98;16.15;;;11.20;99.90;;;;;;5043310;28;20505;-68
2023/05/08 01:20:41;;;;;;;21.20;16.50;;;;;;;;;;5028744;28;20049;-68
2023/05/08 01:23:28;;;;;;;19.70;16.35;;;11.00;99.90;;;;;;5057945;28;20032;-68
2023/05/08 01:26:14;;;;;;;22.15;16.27;;;10.50;99.90;;;;;;5042648;28;20085;-68
2023/05/08 01:29:24;;;;;;;22.70;16.20;;;10.80;99.90;;;;;;5040272;28;20052;-68
2023/05/08 01:32:14;;;;;;;19.95;15.32;;;10.60;99.90;;;;;;5029074;28;20048;-68
2023/05/08 01:34:55;;;;;;;20.17;15.77;;;11.20;99.90;;;;;;5035171;28;20503;-68
2023/05/08 01:37:29;;;;;;;20.52;16.13;;;10.80;99.90;;;;;;5032467;28;20041;-69
2023/05/08 01:40:11;;;;;;;22.15;16.92;;;10.90;99.90;;;;;;5033374;28;20123;-69
2023/05/08 01:42:49;;;;;;;24.67;17.08;;;10.60;99.90;;;;;;5032333;28;20041;-69
2023/05/08 01:45:25;;;;;;;21.50;16.20;;;11.00;99.90;;;;;;5042237;28;20033;-68
2023/05/08 01:48:02;;;;;;;21.05;17.13;;;10.50;99.90;;;;;;5032232;28;20554;-69
2023/05/08 01:50:45;;;;;;;21.55;16.13;;;11.20;99.90;;;;;;5037373;28;20045;-68
2023/05/08 01:53:24;;;;;;;19.85;15.25;;;10.60;99.90;;;;;;5043707;28;20492;-69
2023/05/08 01:55:55;;;;;;;21.60;17.02;;;11.00;99.90;;;;;;5041209;28;21832;-68
2023/05/08 01:58:22;;;;;;;21.65;17.08;;;;;;;;;;5042559;28;20044;-69
2023/05/08 02:00:50;;;;;;;21.70;16.35;;;10.90;99.90;;;;;;5038210;28;20041;-68
2023/05/08 02:03:17;;;;;;;21.05;16.27;;;10.90;99.90;;;;;;5040803;28;20499;-68
2023/05/08 02:05:44;;;;;;;23.33;18.20;;;10.80;99.90;;;;;;5039188;28;20101;-69
2023/05/08 02:08:12;;;;;;;21.20;17.08;;;10.90;99.90;;;;;;5052390;28;20042;-69
2023/05/08 02:10:40;;;;;;;20.60;15.90;;;10.30;99.90;;;;;;5036510;28;20052;-69
2023/05/08 02:13:08;;;;;;;22.73;17.02;;;10.70;99.90;;;;;;5031203;28;20045;-68
2023/05/08 02:15:35;;;;;;;19.15;15.10;;;10.70;99.90;;;;;;5040306;28;20179;-68
2023/05/08 02:18:04;;;;;;;21.90;15.45;;;10.80;99.90;;;;;;5046756;28;20112;-68
2023/05/08 02:20:31;;;;;;;21.85;16.15;;;10.70;99.90;;;;;;5036856;28;20144;-68
2023/05/08 02:22:57;;;;;;;19.83;15.27;;;10.60;99.90;;;;;;5042224;28;20033;-68
2023/05/08 02:25:25;;;;;;;19.27;15.10;;;10.60;99.90;;;;;;5041442;28;20124;-68
2023/05/08 02:27:53;;;;;;;19.73;14.50;;;10.50;99.90;;;;;;5045345;28;20094;-68
2023/05/08 02:30:23;;;;;;;21.35;15.73;;;10.60;99.90;;;;;;5031024;28;20137;-68
2023/05/08 02:32:51;;;;;;;19.42;14.85;;;10.20;99.90;;;;;;5040758;28;20156;-68
2023/05/08 02:35:18;;;;;;;21.33;16.35;;;;;;;;;;5040690;28;20499;-68
2023/05/08 02:37:46;;;;;;;21.50;16.08;;;10.30;99.90;;;;;;5036447;28;20045;-68
2023/05/08 02:40:13;;;;;;;21.60;16.08;;;10.60;99.90;;;;;;5044505;28;20458;-68
2023/05/08 02:42:39;;;;;;;22.30;15.88;;;10.30;99.90;;;;;;5040157;28;20124;-68
2023/05/08 02:45:06;;;;;;;36.10;16.52;;;10.60;99.90;;;;;;5035110;28;20095;-68
2023/05/08 02:47:50;;;;;;;19.75;15.93;;;10.40;99.90;;;;;;5032835;28;20037;-68
2023/05/08 02:50:50;;;;;;;21.40;15.57;;;10.20;99.90;;;;;;5043522;28;20090;-68
2023/05/08 02:53:31;;;;;;;20.90;15.80;;;10.20;99.90;;;;;;5028081;28;20041;-68
2023/05/08 02:56:07;;;;;;;22.05;15.50;;;10.50;99.90;;;;;;5041245;28;20452;-67
2023/05/08 02:58:51;;;;;;;21.52;16.55;;;10.50;99.90;;;;;;5030561;28;20037;-68
2023/05/08 03:01:32;;;;;;;22.17;17.13;;;10.20;99.90;;;;;;5034868;28;20068;-68
2023/05/08 03:04:01;;;;;;;22.17;16.20;;;;;;;;;;5027072;28;20163;-68
2023/05/08 03:06:31;;;;;;;24.50;17.65;;;9.90;1.00;;;;;;5040823;28;20402;-68
2023/05/08 03:09:00;;;;;;;24.08;17.10;;;10.40;1.00;;;;;;5034290;28;20107;-68
2023/05/08 03:11:42;;;;;;;23.90;17.40;;;10.20;1.00;;;;;;5053798;28;20032;-68
2023/05/08 03:14:11;;;;;;;24.40;17.27;;;10.10;1.00;;;;;;5032880;28;20048;-68
2023/05/08 03:16:39;;;;;;;21.02;16.52;;;;;;;;;;5032160;28;20040;-68
2023/05/08 03:19:18;;;;;;;23.00;16.50;;;10.20;1.00;;;;;;5027863;28;20049;-68
2023/05/08 03:21:45;;;;;;;23.13;17.40;;;;;;;;;;5039520;28;20045;-68
2023/05/08 03:24:14;;;;;;;24.20;17.00;;;10.30;1.00;;;;;;5028299;28;20045;-68
2023/05/08 03:26:41;;;;;;;24.02;17.73;;;10.20;1.00;;;;;;5038650;28;20103;-67
2023/05/08 03:29:08;;;;;;;21.55;17.45;;;10.30;1.00;;;;;;5043712;28;20061;-67
2023/05/08 03:31:35;;;;;;;23.38;17.10;;;9.80;1.00;;;;;;5030524;28;20038;-68
2023/05/08 03:34:01;;;;;;;24.85;17.98;;;;;;;;;;5035998;28;20044;-68
2023/05/08 03:36:28;;;;;;;23.92;17.23;;;10.00;1.00;;;;;;5034594;28;20053;-68
2023/05/08 03:38:54;;;;;;;22.77;17.40;;;9.80;1.00;;;;;;5050105;28;20443;-68
2023/05/08 03:41:21;;;;;;;33.90;16.73;;;10.20;1.00;;;;;;5035043;28;20092;-68
2023/05/08 03:43:47;;;;;;;23.42;17.23;;;;;;;;;;5033024;28;20095;-68
2023/05/08 03:46:15;;;;;;;22.05;16.05;;;10.00;1.00;;;;;;5022937;28;20123;-68
2023/05/08 03:48:42;;;;;;;23.52;16.83;;;9.70;1.00;;;;;;5028539;28;20061;-68
2023/05/08 03:51:08;;;;;;;25.42;18.02;;;9.50;1.00;;;;;;5040251;28;20048;-68
2023/05/08 03:53:34;;;;;;;22.98;17.00;;;9.50;1.00;;;;;;5041354;28;20056;-68
2023/05/08 03:56:00;;;;;;;25.75;17.40;;;9.90;1.00;;;;;;5038736;28;20033;-67
2023/05/08 03:58:51;;;;;;;23.27;17.40;;;9.40;1.00;;;;;;5042776;28;20280;-68
2023/05/08 04:01:29;;;;;;;24.60;16.75;;;9.50;1.00;;;;;;5038856;28;20172;-68
2023/05/08 04:04:26;;;;;;;24.02;17.00;;;9.70;1.00;;;;;;5036486;28;20064;-68
2023/05/08 04:06:58;;;;;;;22.85;16.30;;;9.60;1.00;;;;;;5045130;28;20065;-68
2023/05/08 04:09:44;;;;;;;22.63;16.92;;;;;;;;;;5043086;28;20065;-68
2023/05/08 04:12:14;;;;;;;23.33;16.92;;;9.80;1.00;;;;;;5034635;28;20398;-68
2023/05/08 04:14:48;;;;;;;24.23;16.75;;;9.30;1.00;;;;;;5034871;28;20124;-68
2023/05/08 04:17:32;;;;;;;26.10;17.50;;;9.80;1.00;;;;;;5051461;28;20091;-68
2023/05/08 04:20:02;;;;;;;21.20;16.00;;;9.70;1.00;;;;;;5032305;28;20045;-68
2023/05/08 04:22:29;;;;;;;24.40;16.98;;;9.50;1.00;;;;;;5049420;28;20123;-68
2023/05/08 04:24:58;;;;;;;25.17;18.70;;;9.90;1.00;;;;;;5048152;28;20431;-68
2023/05/08 04:27:24;;;;;;;24.10;16.75;;;9.80;1.00;;;;;;5033566;28;20084;-69
2023/05/08 04:29:50;;;;;;;25.65;17.25;;;9.70;1.00;;;;;;5046838;28;20037;-68
2023/05/08 04:32:16;;;;;;;26.42;17.75;;;9.50;1.00;;;;;;5051654;28;20048;-68
2023/05/08 04:34:42;;;;;;;25.27;16.80;;;10.20;1.00;;;;;;5035985;28;20048;-68
2023/05/08 04:37:08;;;;;;;26.25;17.65;;;9.70;1.00;;;;;;5048145;28;20030;-68
2023/05/08 04:39:33;;;;;;;24.70;17.58;;;9.70;1.00;;;;;;5050467;28;20048;-68
2023/05/08 04:42:02;;;;;;;26.60;18.08;;;10.10;1.00;;;;;;5053685;28;20068;-68
2023/05/08 04:44:28;;;;;;;24.90;18.02;;;9.90;1.00;;;;;;5051803;28;20063;-66
2023/05/08 04:46:54;;;;;;;26.45;18.27;;;9.90;1.00;;;;;;5038135;28;20041;-65
2023/05/08 04:49:20;;;;;;;24.10;17.10;;;10.10;2.90;;;;;;5041491;28;20037;-65
2023/05/08 04:51:45;;;;;;;24.77;18.65;;;10.10;5.00;;;;;;5049328;28;20454;-65
2023/05/08 04:54:11;;;;;;;26.08;18.58;;;10.00;2.30;;;;;;5037384;28;20128;-65
2023/05/08 04:56:36;;;;;;;25.00;18.67;;;10.30;3.60;;;;;;5040961;28;20102;-64
2023/05/08 04:59:02;;;;;;;26.95;19.80;;;9.90;3.40;;;;;;5040226;28;20431;-64
2023/05/08 05:01:28;;;;;;;23.20;17.58;;;10.20;2.10;;;;;;5040696;28;20044;-64
2023/05/08 05:03:53;;;;;;;24.98;17.52;;;10.20;2.30;;;;;;5033984;28;20026;-64
2023/05/08 05:06:19;;;;;;;26.50;18.30;;;10.20;5.20;;;;;;5044129;28;20391;-64
2023/05/08 05:08:44;;;;;;;24.50;17.30;;;10.10;6.40;;;;;;5034138;28;20192;-64
2023/05/08 05:11:10;;;;;;;22.75;17.00;;;9.90;2.50;;;;;;5032075;28;20097;-64
2023/05/08 05:13:35;;;;;;;24.90;17.40;;;10.30;15.50;;;;;;5053980;28;20150;-64
2023/05/08 05:16:01;;;;;;;21.52;16.55;;;10.10;7.70;;;;;;5039697;28;20589;-64
2023/05/08 05:18:27;;;;;;;24.77;19.00;;;10.20;7.70;;;;;;5037810;28;20033;-64
2023/05/08 05:20:52;;;;;;;24.80;17.90;;;10.80;6.40;;;;;;5044435;28;20060;-64
2023/05/08 05:23:18;;;;;;;23.42;16.90;;;10.10;1.00;;;;;;5045420;28;20042;-64
2023/05/08 05:25:44;;;;;;;24.25;17.52;;;10.70;1.00;;;;;;5042170;28;20425;-65
2023/05/08 05:28:09;;;;;;;23.60;17.25;;;10.70;1.00;;;;;;5048725;28;20102;-64
2023/05/08 05:30:35;;;;;;;24.50;18.65;;;10.90;1.00;;;;;;5045659;28;20040;-64
2023/05/08 05:33:01;;;;;;;25.75;18.88;;;10.50;1.00;;;;;;5025913;28;20053;-64
2023/05/08 05:35:26;;;;;;;22.45;16.90;;;10.50;1.00;;;;;;5046677;28;20104;-64
2023/05/08 05:37:52;;;;;;;23.83;17.70;;;10.50;1.00;;;;;;5047873;28;20037;-64
2023/05/08 05:40:19;;;;;;;22.58;17.50;;;10.50;1.00;;;;;;5043368;28;20485;-64
2023/05/08 05:42:48;;;;;;;22.63;16.90;;;10.90;1.00;;;;;;5051000;28;20041;-64
2023/05/08 05:45:14;;;;;;;22.08;16.17;;;11.10;1.00;;;;;;5051372;28;20143;-66
2023/05/08 05:47:44;;;;;;;21.77;16.65;;;;;;;;;;5039040;28;20033;-65
2023/05/08 05:50:10;;;;;;;24.33;16.83;;;10.80;1.00;;;;;;5040966;28;20069;-65
2023/05/08 05:52:35;;;;;;;22.98;15.93;;;11.00;1.00;;;;;;5041088;28;20529;-65
2023/05/08 05:55:01;;;;;;;22.50;16.52;;;11.00;1.00;;;;;;5050925;28;20045;-65
2023/05/08 05:57:27;;;;;;;19.50;15.07;;;11.00;1.00;;;;;;5044346;28;20060;-65
2023/05/08 05:59:52;;;;;;;20.10;16.35;;;11.20;1.00;;;;;;5047431;28;20041;-65
2023/05/08 06:02:19;;;;;;;19.30;14.95;;;11.10;1.00;;;;;;5042646;28;20485;-65
2023/05/08 06:04:44;;;;;;;22.02;16.17;;;11.30;1.00;;;;;;5046286;28;20057;-65
2023/05/08 06:07:10;;;;;;;20.17;15.07;;;11.30;1.00;;;;;;5036859;28;20029;-65
2023/05/08 06:09:36;;;;;;;18.60;14.77;;;11.20;1.00;;;;;;5043963;28;20033;-65
2023/05/08 06:12:01;;;;;;;18.20;14.25;;;11.70;1.00;;;;;;5040860;28;20044;-66
2023/05/08 06:14:27;;;;;;;19.48;14.95;;;11.20;1.00;;;;;;5043708;28;20044;-65
2023/05/08 06:16:52;;;;;;;20.05;15.18;;;11.40;1.00;;;;;;5048384;28;20115;-65
2023/05/08 06:19:18;;;;;;;21.02;15.13;;;11.40;1.00;;;;;;5046099;28;20411;-65
2023/05/08 06:21:44;;;;;;;21.27;15.48;;;11.60;1.00;;;;;;5046986;28;20127;-65
2023/05/08 06:24:10;;;;;;;21.02;14.63;;;11.50;1.00;;;;;;5042124;28;20829;-65
2023/05/08 06:26:36;;;;;;;19.80;15.02;;;11.30;1.00;;;;;;5050565;28;20437;-65
2023/05/08 06:29:01;;;;;;;21.45;15.90;;;11.60;1.00;;;;;;5050042;28;20033;-65
2023/05/08 06:31:27;;;;;;;20.40;15.65;;;11.50;99.90;;;;;;5041015;28;20052;-65
2023/05/08 06:33:52;;;;;;;19.98;15.38;;;12.00;99.90;;;;;;5020032;28;20087;-65
2023/05/08 06:36:18;;;;;;;20.50;15.68;;;11.90;99.90;;;;;;5030654;28;20036;-65
2023/05/08 06:38:44;;;;;;;20.17;14.48;;;;;;;;;;5030207;28;20030;-65
2023/05/08 06:41:10;;;;;;;19.60;14.15;;;11.60;99.90;;;;;;5040109;28;20341;-65
2023/05/08 06:43:35;;;;;;;18.25;14.20;;;11.90;99.90;;;;;;5038590;28;20045;-65
2023/05/08 06:46:01;;;;;;;21.02;15.15;;;11.60;99.90;;;;;;5047629;28;20065;-65
2023/05/08 06:48:27;;;;;;;19.00;14.85;;;12.40;99.90;;;;;;5039952;28;20033;-65
2023/05/08 06:50:53;;;;;;;17.35;13.65;;;12.30;99.90;;;;;;5045774;28;20044;-65
2023/05/08 06:53:19;;;;;;;19.27;14.07;;;12.90;99.90;;;;;;5044678;28;20046;-65
2023/05/08 06:55:44;;;;;;;18.15;13.15;;;12.40;99.90;;;;;;5046442;28;20033;-65
2023/05/08 06:58:10;;;;;;;18.55;14.15;;;12.50;99.90;;;;;;5031494;28;20069;-65
2023/05/08 07:00:36;;;;;;;18.63;14.35;;;12.10;99.90;;;;;;5038413;28;20056;-65
2023/05/08 07:03:01;;;;;;;18.50;14.20;;;12.40;99.90;;;;;;5041353;28;20064;-65
2023/05/08 07:05:27;;;;;;;20.30;14.02;;;12.40;99.90;;;;;;5036518;28;20056;-65
2023/05/08 07:07:53;;;;;;;17.90;13.63;;;12.30;99.90;;;;;;5039001;28;20048;-65
2023/05/08 07:10:21;;;;;;;19.40;14.82;;;12.80;99.90;;;;;;5036213;28;20037;-65
2023/05/08 07:12:47;;;;;;;16.92;13.80;;;12.60;99.90;;;;;;5042011;28;20049;-65
2023/05/08 07:15:13;;;;;;;20.88;16.42;;;12.60;99.90;;;;;;5040125;28;20418;-65
2023/05/08 07:17:40;;;;;;;17.85;14.10;;;12.60;99.90;;;;;;5048036;28;20048;-65
2023/05/08 07:20:06;;;;;;;19.25;14.80;;;12.30;99.90;;;;;;5036075;28;20041;-65
2023/05/08 07:22:32;;;;;;;16.67;13.60;;;12.60;99.90;;;;;;5042219;28;20088;-65
2023/05/08 07:24:58;;;;;;;18.05;14.25;;;;;;;;;;5039185;28;20038;-65
2023/05/08 07:27:24;;;;;;;17.90;14.43;;;13.10;99.90;;;;;;5040856;28;20041;-65
2023/05/08 07:29:49;;;;;;;17.35;13.43;;;12.90;99.90;;;;;;5043928;28;20441;-65
2023/05/08 07:32:15;;;;;;;18.70;14.15;;;12.60;99.90;;;;;;5036139;28;20512;-65
2023/05/08 07:34:41;;;;;;;16.98;13.63;;;13.10;97.50;;;;;;5043046;28;20045;-65
2023/05/08 07:37:07;;;;;;;17.52;13.18;;;13.10;74.30;;;;;;5043326;28;20041;-65
2023/05/08 07:39:33;;;;;;;17.17;14.70;;;13.20;50.40;;;;;;5042272;28;20518;-65
2023/05/08 07:41:59;;;;;;;17.42;13.73;;;13.40;35.30;;;;;;5040214;28;20094;-65
2023/05/08 07:44:24;;;;;;;17.83;14.50;;;13.10;25.30;;;;;;5025736;28;20124;-65
2023/05/08 07:46:50;;;;;;;16.35;13.55;;;13.40;1.00;;;;;;5039670;28;20041;-65
2023/05/08 07:49:16;;;;;;;17.70;13.95;;;13.90;1.00;;;;;;5040679;28;20511;-65
2023/05/08 07:51:41;;;;;;;17.73;13.65;;;14.00;1.00;;;;;;5040001;28;20124;-65
2023/05/08 07:54:07;;;;;;;19.55;14.70;;;13.70;1.00;;;;;;5037838;28;20053;-65
2023/05/08 07:56:32;;;;;;;16.83;13.45;;;14.10;1.00;;;;;;5046019;28;20097;-65
2023/05/08 07:58:58;;;;;;;17.08;13.60;;;14.10;1.00;;;;;;5043778;28;20086;-65
2023/05/08 08:01:24;;;;;;;16.67;13.52;;;13.80;1.00;;;;;;5037694;28;20037;-65
2023/05/08 08:03:49;;;;;;;16.35;12.65;;;14.10;99.90;;;;;;5018188;28;20176;-65
2023/05/08 08:06:15;;;;;;;18.27;14.32;;;14.30;99.90;;;;;;5041363;28;20414;-65
2023/05/08 08:08:41;;;;;;;17.90;13.68;;;13.90;99.90;;;;;;5039801;28;20585;-65
2023/05/08 08:11:07;;;;;;;16.20;13.38;;;14.20;99.90;;;;;;5043026;28;20156;-65
2023/05/08 08:13:33;;;;;;;17.05;13.60;;;14.30;99.90;;;;;;5051774;28;20056;-66
2023/05/08 08:16:00;;;;;;;18.52;13.85;;;14.10;99.90;;;;;;5044491;28;20053;-65
2023/05/08 08:18:25;;;;;;;16.70;13.30;;;14.40;99.90;;;;;;5051506;28;20037;-65
2023/05/08 08:20:51;;;;;;;19.15;14.65;;;13.90;99.90;;;;;;5051989;28;20055;-65
2023/05/08 08:23:16;;;;;;;18.10;14.52;;;13.80;99.90;;;;;;5048672;28;20124;-65
2023/05/08 08:25:42;;;;;;;17.85;14.13;;;14.30;99.90;;;;;;5053426;28;20040;-65
2023/05/08 08:28:08;;;;;;;19.88;15.52;;;13.90;99.90;;;;;;5045614;28;20124;-65
2023/05/08 08:30:33;;;;;;;18.83;14.05;;;14.00;99.90;;;;;;5035228;28;20072;-66
2023/05/08 08:33:01;;;;;;;17.30;13.95;;;13.90;99.90;;;;;;5044394;28;20075;-65
2023/05/08 08:35:28;;;;;;;17.92;14.15;;;14.10;99.90;;;;;;5043260;28;20095;-65
2023/05/08 08:37:55;;;;;;;18.70;14.63;;;14.10;99.90;;;;;;5043322;28;20049;-65
2023/05/08 08:40:21;;;;;;;19.10;15.85;;;14.10;99.90;;;;;;5042430;28;20439;-65
2023/05/08 08:42:46;;;;;;;18.00;14.43;;;14.00;99.90;;;;;;5049476;28;20072;-65
2023/05/08 08:45:12;;;;;;;19.35;14.95;;;14.10;99.90;;;;;;5044522;28;20033;-65
2023/05/08 08:47:42;;;;;;;17.10;14.00;;;14.30;99.90;;;;;;5037727;28;20598;-65
2023/05/08 08:50:09;;;;;;;19.15;15.23;;;14.30;99.90;;;;;;5048888;28;20055;-65
2023/05/08 08:53:12;;;;;;;18.30;14.65;;;14.70;99.90;;;;;;5039700;28;20037;-65
2023/05/08 08:55:45;;;;;;;18.23;14.75;;;14.30;99.90;;;;;;4984826;28;20054;-65
2023/05/08 08:58:21;;;;;;;18.80;14.77;;;14.80;99.90;;;;;;5035102;28;20060;-65
2023/05/08 09:00:48;;;;;;;17.98;15.23;;;14.80;99.90;;;;;;5038941;28;20162;-65
2023/05/08 09:03:14;;;;;;;17.65;15.02;;;14.80;99.90;;;;;;5048833;28;20063;-65
2023/05/08 09:05:40;;;;;;;19.08;14.80;;;15.00;99.90;;;;;;5040451;28;20491;-65
2023/05/08 09:08:08;;;;;;;19.42;14.82;;;15.00;99.90;;;;;;5047567;28;20116;-65
2023/05/08 09:10:36;;;;;;;19.92;16.67;;;14.90;99.90;;;;;;5039681;28;20117;-65
2023/05/08 09:13:03;;;;;;;20.50;16.13;;;15.20;99.90;;;;;;5035062;28;20095;-65
2023/05/08 09:15:31;;;;;;;18.90;15.80;;;15.30;99.90;;;;;;5042460;28;20033;-65
2023/05/08 09:17:57;;;;;;;18.17;15.23;;;15.20;99.90;;;;;;5043499;28;20483;-65
2023/05/08 09:20:24;;;;;;;20.58;15.35;;;15.20;99.90;;;;;;5059889;28;20041;-65
2023/05/08 09:22:51;;;;;;;18.60;15.30;;;15.30;99.90;;;;;;5043730;28;20469;-65
2023/05/08 09:25:17;;;;;;;21.80;15.80;;;15.70;95.90;;;;;;5036424;28;20049;-65
2023/05/08 09:27:43;;;;;;;19.33;16.35;;;15.50;77.20;;;;;;5036180;28;20049;-65
2023/05/08 09:30:11;;;;;;;19.63;16.25;;;14.50;46.00;;;;;;5048274;28;20529;-65
2023/05/08 09:32:39;;;;;;;19.45;15.85;;;15.60;1.00;;;;;;5045121;28;20049;-66
2023/05/08 09:35:06;;;;;;;20.13;16.80;;;15.10;4.60;;;;;;5044652;28;20080;-66
2023/05/08 09:37:32;;;;;;;21.33;16.85;;;15.60;1.00;;;;;;5049371;28;20052;-66
2023/05/08 09:40:15;;;;;;;18.80;16.20;;;16.00;1.00;;;;;;5050408;28;20040;-65
2023/05/08 09:42:40;;;;;;;18.67;15.77;;;15.60;1.00;;;;;;5049695;28;20048;-66
2023/05/08 09:45:07;;;;;;;20.25;16.63;;;15.90;1.00;;;;;;5035703;28;20041;-66
2023/05/08 09:47:36;;;;;;;20.23;16.90;;;16.40;1.00;;;;;;5042522;28;20041;-66
2023/05/08 09:50:09;;;;;;;20.23;17.70;;;16.20;1.00;;;;;;5033730;28;20045;-65
2023/05/08 09:52:37;;;;;;;20.77;16.98;;;16.10;1.00;;;;;;5054275;28;20037;-66
2023/05/08 09:55:08;;;;;;;20.00;15.32;;;15.90;1.00;;;;;;5050516;28;20053;-66
2023/05/08 09:57:38;;;;;;;19.98;15.82;;;16.20;1.00;;;;;;5046832;28;20041;-66
2023/05/08 10:00:11;;;;;;;18.85;16.35;;;16.50;1.00;;;;;;5041265;28;20067;-66
2023/05/08 10:02:38;;;;;;;21.17;17.73;;;16.10;1.00;;;;;;5045627;28;20126;-65
2023/05/08 10:05:21;;;;;;;19.92;16.70;;;16.70;1.00;;;;;;5048498;28;20048;-65
2023/05/08 10:07:47;;;;;;;20.08;16.77;;;17.10;1.00;;;;;;5043572;28;20499;-66
2023/05/08 10:10:12;;;;;;;22.92;19.00;;;16.80;1.00;;;;;;5047471;28;20041;-66
2023/05/08 10:12:40;;;;;;;21.90;18.08;;;17.00;1.00;;;;;;5046292;28;20036;-66
2023/05/08 10:15:06;;;;;;;23.55;18.20;;;17.00;1.00;;;;;;5040445;28;20565;-65
2023/05/08 10:17:46;;;;;;;22.55;16.63;;;17.50;1.00;;;;;;5046294;28;20124;-66
2023/05/08 10:20:14;;;;;;;30.10;18.90;;;17.10;99.90;;;;;;5039484;28;20037;-66
2023/05/08 10:22:42;;;;;;;21.10;17.13;;;17.30;99.90;;;;;;5037009;28;20095;-66
2023/05/08 10:25:15;;;;;;;23.65;18.45;;;17.40;99.90;;;;;;5044607;28;20048;-66
2023/05/08 10:27:49;;;;;;;21.52;17.33;;;17.60;99.90;;;;;;5036212;28;20437;-66
2023/05/08 10:30:18;;;;;;;22.60;18.13;;;17.60;99.90;;;;;;5037821;28;20057;-65
2023/05/08 10:32:46;;;;;;;21.73;17.15;;;18.10;99.90;;;;;;5044774;28;20037;-66
2023/05/08 10:35:12;;;;;;;21.15;16.98;;;17.70;99.90;;;;;;5035379;28;20041;-66
2023/05/08 10:37:41;;;;;;;23.52;18.15;;;17.90;99.90;;;;;;5048403;28;20052;-66
2023/05/08 10:40:08;;;;;;;20.52;17.75;;;18.20;99.90;;;;;;5035298;28;20434;-66
2023/05/08 10:42:35;;;;;;;20.67;17.90;;;18.40;99.90;;;;;;5039272;28;20045;-66
2023/05/08 10:45:03;;;;;;;24.35;18.42;;;18.10;99.90;;;;;;5050626;28;20044;-66
2023/05/08 10:48:06;;;;;;;22.55;17.85;;;18.50;1.00;;;;;;5034255;28;20060;-66
2023/05/08 10:50:58;;;;;;;20.58;16.80;;;18.30;1.00;;;;;;5043444;28;20041;-66
2023/05/08 10:53:49;;;;;;;22.17;18.13;;;18.40;1.00;;;;;;5046913;28;20124;-66
2023/05/08 10:56:15;;;;;;;23.13;17.40;;;18.60;99.90;;;;;;5045907;28;20026;-66
2023/05/08 10:58:41;;;;;;;21.38;18.20;;;19.10;99.90;;;;;;5054912;28;20047;-66
2023/05/08 11:01:06;;;;;;;19.50;16.95;;;18.80;99.90;;;;;;5052246;28;20040;-66
2023/05/08 11:03:44;;;;;;;22.08;18.23;;;19.10;99.90;;;;;;5038489;28;20052;-66
2023/05/08 11:06:10;;;;;;;20.60;17.67;;;19.40;99.90;;;;;;5038032;28;20068;-65
2023/05/08 11:09:05;;;;;;;20.30;16.75;;;19.50;99.90;;;;;;5049900;28;20572;-66
2023/05/08 11:11:33;;;;;;;21.75;18.05;;;20.00;99.90;;;;;;5031683;28;20049;-66
2023/05/08 11:14:15;;;;;;;20.70;17.17;;;20.20;99.90;;;;;;5036248;28;20056;-66
2023/05/08 11:16:52;;;;;;;21.67;18.30;;;20.30;99.90;;;;;;5044037;28;20033;-65
2023/05/08 11:19:23;;;;;;;20.33;16.83;;;21.00;99.90;;;;;;5041333;28;20125;-65
2023/05/08 11:22:15;;;;;;;19.98;17.55;;;20.90;99.90;;;;;;5042853;28;20060;-66
2023/05/08 11:25:00;;;;;;;21.00;16.63;;;21.50;30.70;;;;;;5031245;28;20077;-66
2023/05/08 11:27:59;;;;;;;18.95;16.30;;;21.70;1.00;;;;;;5044822;28;20498;-65
2023/05/08 11:30:36;;;;;;;18.52;16.52;;;21.90;1.00;;;;;;5012667;28;20056;-66
2023/05/08 11:33:05;;;;;;;19.10;15.43;;;22.60;99.90;;;;;;5032218;28;20114;-66
2023/05/08 11:35:50;;;;;;;20.77;16.42;;;22.60;99.90;;;;;;5032993;28;20507;-66
2023/05/08 11:38:49;;;;;;;18.45;15.98;;;22.90;99.90;;;;;;5038372;28;20127;-66
2023/05/08 11:41:24;;;;;;;20.38;17.33;;;22.70;99.90;;;;;;5027254;28;20049;-66
2023/05/08 11:44:03;;;;;;;19.90;17.35;;;22.30;99.90;;;;;;5048869;28;20045;-66
2023/05/08 11:46:41;;;;;;;21.20;17.92;;;22.40;99.90;;;;;;5037559;28;20068;-66
2023/05/08 11:49:17;;;;;;;20.25;17.48;;;22.30;99.90;;;;;;5044296;28;20041;-65
2023/05/08 11:51:53;;;;;;;20.95;18.63;;;22.00;99.90;;;;;;5049607;28;20052;-66
2023/05/08 11:54:20;;;;;;;22.52;19.13;;;21.80;99.90;;;;;;5047286;28;20410;-65
2023/05/08 11:56:50;;;;;;;20.05;16.92;;;21.90;99.90;;;;;;5029189;28;20426;-65
2023/05/08 11:59:17;;;;;;;19.52;17.35;;;21.80;99.90;;;;;;5037025;28;20128;-65
2023/05/08 12:01:43;;;;;;;20.38;17.90;;;22.00;99.90;;;;;;5038233;28;20088;-66
2023/05/08 12:04:10;;;;;;;21.98;19.05;;;22.30;99.90;;;;;;5042631;28;20037;-66
2023/05/08 12:06:38;;;;;;;26.27;19.98;;;22.70;99.90;;;;;;5049275;28;20422;-65
2023/05/08 12:09:15;;;;;;;20.05;17.88;;;23.20;99.90;;;;;;5044523;28;20403;-66
2023/05/08 12:11:42;;;;;;;21.08;17.52;;;22.60;99.90;;;;;;5043455;28;20037;-65
2023/05/08 12:14:08;;;;;;;21.45;18.50;;;22.50;99.90;;;;;;5039652;28;20408;-65
2023/05/08 12:16:36;;;;;;;20.55;17.83;;;22.80;99.90;;;;;;5039031;28;20033;-66
2023/05/08 12:19:02;;;;;;;19.77;17.55;;;22.50;99.90;;;;;;5045180;28;20033;-65
2023/05/08 12:21:27;;;;;;;22.13;19.38;;;23.10;99.90;;;;;;5030244;28;20045;-66
2023/05/08 12:23:54;;;;;;;18.75;16.73;;;22.80;99.90;;;;;;5046368;28;20379;-65
2023/05/08 12:26:21;;;;;;;19.90;17.30;;;23.10;99.90;;;;;;5039608;28;20052;-65
2023/05/08 12:28:53;;;;;;;19.17;17.13;;;23.50;99.90;;;;;;5045022;28;20522;-66
2023/05/08 12:31:19;;;;;;;21.00;18.75;;;23.40;99.90;;;;;;5039306;28;20049;-65
2023/05/08 12:33:45;;;;;;;19.67;17.20;;;23.50;99.90;;;;;;5026279;28;20395;-65
2023/05/08 12:36:11;;;;;;;20.23;18.13;;;23.50;99.90;;;;;;5038694;28;20032;-65
2023/05/08 12:38:36;;;;;;;21.98;18.08;;;24.00;99.90;;;;;;5036815;28;20395;-66
2023/05/08 12:41:03;;;;;;;21.95;19.52;;;24.10;99.90;;;;;;5049996;28;20029;-66
2023/05/08 12:43:35;;;;;;;20.77;17.50;;;23.90;99.90;;;;;;5041043;28;20415;-65
2023/05/08 12:46:02;;;;;;;20.10;17.88;;;23.90;99.90;;;;;;5038238;28;20052;-65
2023/05/08 12:48:29;;;;;;;19.58;17.45;;;23.80;99.90;;;;;;5050325;28;20068;-65